createdAt,value
2023-05-02T00:00:01.522Z,10.39
2023-05-02T00:02:28.749Z,10.41
2023-05-02T00:04:57.647Z,10.44
2023-05-02T00:07:26.909Z,10.43
2023-05-02T00:09:53.399Z,10.47
2023-05-02T00:12:20.153Z,10.49
2023-05-02T00:14:48.742Z,10.52
2023-05-02T00:17:19.699Z,10.49
2023-05-02T00:19:49.218Z,10.49
2023-05-02T00:22:15.668Z,10.50
2023-05-02T00:24:42.186Z,10.51
2023-05-02T00:27:08.611Z,10.48
2023-05-02T00:29:37.511Z,10.51
2023-05-02T00:32:03.992Z,10.54
2023-05-02T00:34:31.524Z,10.52
2023-05-02T00:36:58.154Z,10.57
2023-05-02T00:39:24.698Z,10.56
2023-05-02T00:42:00.760Z,10.54
2023-05-02T00:44:28.294Z,10.54
2023-05-02T00:46:56.106Z,10.52
2023-05-02T00:49:22.850Z,10.53
2023-05-02T00:51:51.860Z,10.55
2023-05-02T00:54:18.512Z,10.55
2023-05-02T00:56:45.166Z,10.52
2023-05-02T00:59:12.303Z,10.50
2023-05-02T01:02:23.514Z,10.50
2023-05-02T01:05:13.214Z,10.50
2023-05-02T01:07:57.941Z,10.51
2023-05-02T01:10:44.907Z,10.49
2023-05-02T01:13:20.514Z,10.50
2023-05-02T01:15:49.228Z,10.50
2023-05-02T01:18:18.521Z,10.50
2023-05-02T01:20:49.228Z,10.49
2023-05-02T01:24:00.378Z,10.47
2023-05-02T01:26:36.308Z,10.44
2023-05-02T01:29:11.143Z,10.38
2023-05-02T01:31:45.594Z,10.30
2023-05-02T01:34:12.337Z,10.28
2023-05-02T01:36:44.010Z,10.24
2023-05-02T01:39:18.521Z,10.18
2023-05-02T01:41:48.843Z,10.13
2023-05-02T01:44:17.214Z,10.13
2023-05-02T01:46:45.398Z,10.07
2023-05-02T01:49:11.902Z,10.08
2023-05-02T01:51:46.118Z,10.05
2023-05-02T01:54:14.106Z,10.00
2023-05-02T01:56:43.747Z,10.00
2023-05-02T01:59:20.176Z,9.96
2023-05-02T02:01:51.667Z,9.92
2023-05-02T02:04:23.769Z,9.82
2023-05-02T02:07:04.463Z,9.79
2023-05-02T02:09:31.454Z,9.77
2023-05-02T02:12:11.350Z,9.75
2023-05-02T02:14:46.347Z,9.74
2023-05-02T02:17:25.662Z,9.71
2023-05-02T02:19:59.292Z,9.72
2023-05-02T02:22:34.473Z,9.74
2023-05-02T02:25:03.678Z,9.72
2023-05-02T02:27:30.235Z,9.71
2023-05-02T02:29:59.174Z,9.70
2023-05-02T02:32:28.202Z,9.69
2023-05-02T02:34:56.969Z,9.65
2023-05-02T02:37:33.804Z,9.65
2023-05-02T02:40:28.605Z,9.63
2023-05-02T02:43:28.825Z,9.65
2023-05-02T02:46:28.619Z,9.63
2023-05-02T02:48:57.370Z,9.62
2023-05-02T02:51:36.842Z,9.64
2023-05-02T02:54:25.853Z,9.61
2023-05-02T02:57:05.003Z,9.58
2023-05-02T02:59:41.326Z,9.52
2023-05-02T03:02:10.411Z,9.51
2023-05-02T03:04:45.739Z,9.49
2023-05-02T03:07:14.993Z,9.49
2023-05-02T03:09:48.432Z,9.51
2023-05-02T03:12:14.956Z,9.49
2023-05-02T03:14:42.273Z,9.47
2023-05-02T03:17:11.197Z,9.47
2023-05-02T03:19:42.237Z,9.48
2023-05-02T03:22:11.298Z,9.52
2023-05-02T03:24:37.845Z,9.52
2023-05-02T03:27:04.550Z,9.50
2023-05-02T03:29:31.209Z,9.50
2023-05-02T03:32:02.483Z,9.49
2023-05-02T03:34:29.032Z,9.48
2023-05-02T03:36:55.527Z,9.47
2023-05-02T03:39:22.116Z,9.43
2023-05-02T03:41:51.128Z,9.44
2023-05-02T03:44:22.453Z,9.45
2023-05-02T03:46:49.048Z,9.44
2023-05-02T03:49:19.558Z,9.45
2023-05-02T03:51:48.580Z,9.46
2023-05-02T03:54:19.920Z,9.45
2023-05-02T03:56:47.007Z,9.43
2023-05-02T03:59:18.763Z,9.37
2023-05-02T04:01:45.434Z,9.34
2023-05-02T04:04:12.228Z,9.32
2023-05-02T04:06:38.864Z,9.31
2023-05-02T04:09:10.041Z,9.31
2023-05-02T04:11:36.512Z,9.26
2023-05-02T04:14:05.500Z,9.25
2023-05-02T04:16:36.921Z,9.22
2023-05-02T04:19:03.424Z,9.23
2023-05-02T04:21:29.920Z,9.24
2023-05-02T04:23:56.370Z,9.23
2023-05-02T04:26:25.137Z,9.24
2023-05-02T04:28:51.905Z,9.21
2023-05-02T04:31:18.489Z,9.22
2023-05-02T04:33:45.427Z,9.20
2023-05-02T04:36:17.022Z,9.20
2023-05-02T04:38:43.663Z,9.21
2023-05-02T04:41:10.445Z,9.23
2023-05-02T04:43:39.283Z,9.19
2023-05-02T04:46:05.992Z,9.11
2023-05-02T04:48:34.815Z,9.02
2023-05-02T04:51:03.620Z,8.97
2023-05-02T04:53:30.103Z,8.97
2023-05-02T04:55:59.231Z,8.94
2023-05-02T04:58:25.731Z,8.93
2023-05-02T05:00:54.971Z,8.95
2023-05-02T05:03:21.939Z,8.97
2023-05-02T05:05:50.789Z,8.99
2023-05-02T05:08:17.264Z,8.99
2023-05-02T05:10:43.756Z,8.94
2023-05-02T05:13:12.518Z,8.94
2023-05-02T05:15:39.083Z,8.96
2023-05-02T05:18:08.161Z,8.97
2023-05-02T05:20:39.955Z,8.96
2023-05-02T05:23:06.477Z,8.94
2023-05-02T05:25:34.005Z,9.03
2023-05-02T05:28:03.426Z,9.05
2023-05-02T05:30:31.026Z,9.04
2023-05-02T05:32:58.642Z,9.18
2023-05-02T05:35:27.699Z,9.06
2023-05-02T05:37:56.540Z,8.92
2023-05-02T05:40:25.491Z,8.84
2023-05-02T05:42:54.436Z,8.81
2023-05-02T05:45:23.320Z,8.76
2023-05-02T05:47:49.811Z,8.77
2023-05-02T05:50:16.693Z,8.74
2023-05-02T05:52:45.479Z,8.78
2023-05-02T05:55:16.937Z,8.73
2023-05-02T05:57:45.848Z,8.78
2023-05-02T06:00:13.139Z,8.82
2023-05-02T06:02:41.934Z,8.85
2023-05-02T06:05:08.698Z,8.88
2023-05-02T06:07:37.752Z,8.90
2023-05-02T06:10:04.826Z,8.96
2023-05-02T06:12:31.441Z,9.02
2023-05-02T06:15:00.317Z,9.15
2023-05-02T06:17:28.918Z,9.31
2023-05-02T06:19:55.344Z,9.41
2023-05-02T06:22:24.487Z,9.42
2023-05-02T06:24:51.051Z,9.43
2023-05-02T06:27:20.022Z,9.54
2023-05-02T06:29:46.453Z,9.57
2023-05-02T06:32:13.063Z,9.48
2023-05-02T06:34:42.095Z,9.49
2023-05-02T06:37:08.610Z,9.36
2023-05-02T06:39:35.085Z,9.38
2023-05-02T06:42:04.061Z,9.29
2023-05-02T06:44:30.569Z,9.27
2023-05-02T06:46:57.170Z,9.25
2023-05-02T06:49:23.712Z,9.17
2023-05-02T06:51:50.228Z,9.08
2023-05-02T06:54:19.063Z,8.97
2023-05-02T06:56:48.042Z,9.01
2023-05-02T06:59:16.628Z,9.11
2023-05-02T07:01:51.100Z,9.13
2023-05-02T07:04:17.620Z,9.11
2023-05-02T07:06:46.756Z,9.06
2023-05-02T07:09:15.557Z,9.07
2023-05-02T07:11:44.418Z,9.02
2023-05-02T07:14:15.774Z,8.96
2023-05-02T07:16:42.311Z,8.97
2023-05-02T07:19:08.824Z,9.04
2023-05-02T07:21:35.240Z,9.08
2023-05-02T07:24:03.917Z,9.26
2023-05-02T07:26:30.456Z,10.08
2023-05-02T07:28:56.935Z,10.03
2023-05-02T07:31:23.567Z,9.99
2023-05-02T07:33:50.190Z,9.77
2023-05-02T07:36:19.229Z,9.56
2023-05-02T07:38:45.853Z,9.44
2023-05-02T07:41:14.643Z,9.43
2023-05-02T07:43:41.100Z,9.51
2023-05-02T07:46:07.590Z,9.69
2023-05-02T07:48:36.421Z,9.67
2023-05-02T07:51:07.325Z,9.68
2023-05-02T07:53:36.108Z,9.66
2023-05-02T07:56:12.747Z,9.62
2023-05-02T07:58:41.568Z,9.73
2023-05-02T08:01:10.564Z,9.73
2023-05-02T08:03:37.224Z,9.87
2023-05-02T08:06:06.263Z,9.99
2023-05-02T08:08:32.843Z,10.12
2023-05-02T08:10:59.294Z,10.16
2023-05-02T08:13:28.357Z,10.09
2023-05-02T08:16:00.387Z,10.06
2023-05-02T08:18:27.592Z,9.97
2023-05-02T08:21:01.850Z,9.69
2023-05-02T08:23:28.292Z,9.74
2023-05-02T08:25:54.831Z,9.74
2023-05-02T08:28:21.352Z,9.80
2023-05-02T08:30:50.198Z,10.04
2023-05-02T08:33:16.893Z,10.20
2023-05-02T08:35:43.550Z,10.24
2023-05-02T08:38:10.121Z,10.37
2023-05-02T08:40:42.600Z,10.57
2023-05-02T08:43:11.940Z,10.56
2023-05-02T08:45:43.838Z,10.42
2023-05-02T08:48:16.960Z,10.50
2023-05-02T08:50:49.619Z,10.37
2023-05-02T08:53:18.028Z,10.41
2023-05-02T08:55:44.503Z,10.33
2023-05-02T08:58:15.369Z,10.38
2023-05-02T09:00:48.673Z,10.44
2023-05-02T09:03:23.955Z,10.60
2023-05-02T09:05:59.916Z,10.79
2023-05-02T09:08:26.785Z,10.95
2023-05-02T09:10:55.733Z,11.12
2023-05-02T09:13:36.241Z,11.13
2023-05-02T09:16:04.146Z,11.21
2023-05-02T09:18:41.344Z,11.10
2023-05-02T09:21:15.317Z,10.99
2023-05-02T09:23:46.588Z,10.91
2023-05-02T09:26:23.341Z,10.99
2023-05-02T09:28:56.159Z,11.04
2023-05-02T09:31:49.574Z,11.43
2023-05-02T09:34:19.806Z,11.55
2023-05-02T09:36:50.418Z,11.62
2023-05-02T09:39:22.480Z,11.17
2023-05-02T09:41:50.825Z,11.13
2023-05-02T09:44:19.502Z,11.73
2023-05-02T09:47:00.250Z,12.25
2023-05-02T09:49:49.686Z,12.13
2023-05-02T09:52:18.020Z,11.68
2023-05-02T09:54:46.746Z,11.78
2023-05-02T09:57:13.717Z,12.06
2023-05-02T09:59:54.095Z,12.21
2023-05-02T10:02:21.805Z,12.32
2023-05-02T10:04:49.915Z,12.14
2023-05-02T10:07:19.981Z,12.20
2023-05-02T10:09:50.972Z,12.30
2023-05-02T10:12:18.888Z,12.96
2023-05-02T10:14:59.282Z,12.87
2023-05-02T10:17:31.995Z,12.63
2023-05-02T10:20:06.793Z,12.53
2023-05-02T10:22:36.836Z,12.44
2023-05-02T10:25:06.181Z,12.66
2023-05-02T10:27:33.279Z,12.94
2023-05-02T10:30:01.200Z,13.19
2023-05-02T10:32:28.506Z,13.93
2023-05-02T10:35:02.236Z,13.01
2023-05-02T10:37:33.563Z,12.38
2023-05-02T10:40:03.299Z,12.71
2023-05-02T10:42:39.965Z,13.07
2023-05-02T10:45:32.459Z,12.75
2023-05-02T10:48:22.635Z,12.30
2023-05-02T10:50:53.476Z,12.68
2023-05-02T10:53:22.888Z,13.63
2023-05-02T10:56:11.257Z,14.11
2023-05-02T10:58:37.749Z,13.18
2023-05-02T11:01:29.315Z,12.65
2023-05-02T11:04:01.397Z,13.05
2023-05-02T11:06:29.945Z,12.53
2023-05-02T11:09:28.896Z,12.11
2023-05-02T11:11:57.028Z,12.49
2023-05-02T11:14:26.534Z,13.33
2023-05-02T11:16:59.522Z,13.41
2023-05-02T11:19:31.548Z,13.23
2023-05-02T11:22:27.993Z,13.27
2023-05-02T11:24:54.691Z,13.79
2023-05-02T11:27:30.541Z,13.15
2023-05-02T11:30:09.885Z,12.64
2023-05-02T11:32:49.578Z,13.32
2023-05-02T11:35:20.283Z,14.18
2023-05-02T11:38:11.620Z,14.64
2023-05-02T11:40:38.483Z,14.65
2023-05-02T11:43:18.290Z,14.01
2023-05-02T11:45:47.507Z,13.53
2023-05-02T11:48:18.944Z,14.09
2023-05-02T11:50:50.891Z,14.41
2023-05-02T11:53:23.630Z,13.93
2023-05-02T11:56:07.488Z,13.99
2023-05-02T11:58:36.456Z,14.45
2023-05-02T12:01:18.031Z,13.67
2023-05-02T12:03:45.146Z,13.13
2023-05-02T12:06:22.987Z,12.82
2023-05-02T12:08:49.670Z,12.43
2023-05-02T12:11:18.780Z,12.56
2023-05-02T12:13:49.985Z,13.12
2023-05-02T12:16:18.223Z,13.49
2023-05-02T12:18:45.178Z,13.57
2023-05-02T12:21:11.874Z,12.79
2023-05-02T12:23:39.936Z,12.60
2023-05-02T12:26:25.171Z,13.12
2023-05-02T12:28:52.767Z,13.57
2023-05-02T12:31:28.062Z,13.95
2023-05-02T12:34:00.543Z,13.82
2023-05-02T12:36:33.896Z,13.42
2023-05-02T12:39:06.120Z,13.56
2023-05-02T12:41:39.021Z,13.72
2023-05-02T12:44:07.245Z,14.16
2023-05-02T12:46:36.497Z,14.44
2023-05-02T12:49:04.078Z,14.71
2023-05-02T12:51:31.779Z,14.66
2023-05-02T12:54:04.814Z,14.36
2023-05-02T12:56:39.427Z,14.43
2023-05-02T12:59:10.878Z,13.69
2023-05-02T13:01:37.757Z,13.33
2023-05-02T13:04:10.222Z,13.13
2023-05-02T13:06:39.148Z,13.70
2023-05-02T13:09:07.921Z,14.13
2023-05-02T13:11:36.982Z,13.90
2023-05-02T13:14:05.651Z,13.97
2023-05-02T13:16:36.720Z,13.99
2023-05-02T13:19:06.086Z,13.97
2023-05-02T13:21:32.655Z,14.12
2023-05-02T13:23:59.205Z,14.13
2023-05-02T13:26:30.552Z,14.56
2023-05-02T13:28:59.721Z,14.97
2023-05-02T13:31:26.197Z,14.37
2023-05-02T13:33:57.605Z,14.00
2023-05-02T13:36:24.602Z,14.30
2023-05-02T13:38:51.341Z,14.33
2023-05-02T13:41:21.546Z,14.03
2023-05-02T13:43:50.439Z,14.46
2023-05-02T13:46:17.190Z,14.50
2023-05-02T13:48:43.873Z,14.40
2023-05-02T13:51:10.337Z,13.90
2023-05-02T13:53:37.414Z,13.70
2023-05-02T13:56:06.129Z,13.79
2023-05-02T13:58:34.905Z,13.80
2023-05-02T14:01:04.369Z,13.73
2023-05-02T14:03:30.983Z,13.89
2023-05-02T14:06:00.173Z,13.88
2023-05-02T14:08:31.264Z,13.78
2023-05-02T14:10:57.803Z,13.24
2023-05-02T14:13:26.482Z,13.50
2023-05-02T14:15:56.076Z,13.58
2023-05-02T14:18:24.913Z,13.87
2023-05-02T14:20:51.452Z,13.88
2023-05-02T14:23:19.972Z,13.58
2023-05-02T14:25:46.439Z,13.87
2023-05-02T14:28:16.443Z,13.66
2023-05-02T14:30:42.888Z,13.83
2023-05-02T14:33:09.675Z,13.94
2023-05-02T14:35:38.601Z,14.00
2023-05-02T14:38:07.405Z,13.91
2023-05-02T14:40:33.921Z,13.89
2023-05-02T14:43:00.828Z,13.69
2023-05-02T14:45:27.344Z,13.49
2023-05-02T14:47:57.804Z,13.20
2023-05-02T14:50:24.586Z,13.22
2023-05-02T14:52:56.053Z,13.08
2023-05-02T14:55:22.583Z,12.89
2023-05-02T14:57:51.177Z,12.96
2023-05-02T15:00:18.022Z,13.21
2023-05-02T15:02:46.918Z,12.79
2023-05-02T15:05:13.711Z,12.97
2023-05-02T15:07:40.302Z,13.06
2023-05-02T15:10:07.287Z,12.85
2023-05-02T15:12:36.263Z,12.54
2023-05-02T15:15:02.966Z,12.57
2023-05-02T15:17:29.429Z,12.55
2023-05-02T15:19:58.276Z,12.67
2023-05-02T15:22:26.089Z,12.59
2023-05-02T15:24:52.636Z,12.60
2023-05-02T15:27:23.854Z,12.44
2023-05-02T15:29:52.776Z,12.55
2023-05-02T15:32:24.153Z,12.58
2023-05-02T15:34:50.762Z,12.65
2023-05-02T15:37:17.295Z,12.63
2023-05-02T15:39:43.749Z,12.56
2023-05-02T15:42:10.902Z,12.37
2023-05-02T15:44:37.707Z,12.43
2023-05-02T15:47:04.397Z,12.68
2023-05-02T15:49:34.592Z,12.90
2023-05-02T15:52:03.778Z,12.88
2023-05-02T15:54:32.810Z,12.78
2023-05-02T15:57:02.635Z,12.61
2023-05-02T15:59:29.224Z,12.66
2023-05-02T16:01:58.070Z,12.44
2023-05-02T16:04:25.212Z,12.13
2023-05-02T16:06:51.935Z,11.93
2023-05-02T16:09:21.125Z,12.00
2023-05-02T16:11:49.975Z,11.84
2023-05-02T16:14:16.483Z,11.88
2023-05-02T16:16:43.032Z,11.99
2023-05-02T16:19:13.317Z,12.06
2023-05-02T16:21:42.967Z,11.82
2023-05-02T16:24:10.123Z,11.73
2023-05-02T16:26:36.662Z,11.50
2023-05-02T16:29:03.222Z,11.38
2023-05-02T16:31:32.220Z,11.35
2023-05-02T16:33:58.877Z,11.20
2023-05-02T16:36:26.349Z,11.09
2023-05-02T16:38:55.483Z,11.01
2023-05-02T16:41:21.988Z,10.91
2023-05-02T16:43:49.674Z,10.75
2023-05-02T16:46:16.550Z,10.67
2023-05-02T16:48:42.993Z,10.64
2023-05-02T16:51:09.480Z,10.62
2023-05-02T16:53:36.109Z,10.67
2023-05-02T16:56:02.538Z,10.66
2023-05-02T16:58:29.292Z,10.62
2023-05-02T17:00:58.384Z,10.56
2023-05-02T17:03:27.808Z,10.54
2023-05-02T17:05:57.326Z,10.42
2023-05-02T17:08:24.924Z,10.36
2023-05-02T17:10:51.525Z,10.30
2023-05-02T17:13:20.648Z,10.24
2023-05-02T17:15:49.433Z,10.13
2023-05-02T17:18:16.250Z,10.11
2023-05-02T17:20:47.717Z,10.17
2023-05-02T17:23:16.825Z,10.24
2023-05-02T17:25:43.377Z,10.19
2023-05-02T17:28:12.296Z,10.12
2023-05-02T17:30:38.744Z,10.04
2023-05-02T17:33:05.803Z,9.93
2023-05-02T17:35:34.378Z,9.85
2023-05-02T17:38:03.221Z,9.79
2023-05-02T17:40:36.147Z,9.73
2023-05-02T17:43:05.330Z,9.72
2023-05-02T17:45:37.098Z,9.68
2023-05-02T17:48:08.677Z,9.68
2023-05-02T17:50:39.426Z,9.63
2023-05-02T17:53:07.204Z,9.62
2023-05-02T17:55:37.564Z,9.61
2023-05-02T17:58:04.323Z,9.58
2023-05-02T18:00:30.775Z,9.63
2023-05-02T18:02:57.431Z,9.65
2023-05-02T18:05:26.243Z,9.64
2023-05-02T18:07:53.163Z,9.66
2023-05-02T18:10:21.994Z,9.62
2023-05-02T18:12:48.585Z,9.59
2023-05-02T18:15:17.437Z,9.56
2023-05-02T18:17:46.236Z,9.47
2023-05-02T18:20:13.442Z,9.40
2023-05-02T18:22:42.732Z,9.33
2023-05-02T18:25:12.023Z,9.28
2023-05-02T18:27:38.516Z,9.21
2023-05-02T18:30:08.115Z,9.16
2023-05-02T18:32:34.906Z,9.11
2023-05-02T18:35:04.318Z,9.07
2023-05-02T18:37:36.699Z,9.02
2023-05-02T18:40:03.253Z,8.96
2023-05-02T18:42:29.749Z,8.91
2023-05-02T18:45:01.452Z,8.85
2023-05-02T18:47:31.560Z,8.81
2023-05-02T18:49:59.704Z,8.75
2023-05-02T18:52:29.067Z,8.68
2023-05-02T18:54:55.528Z,8.63
2023-05-02T18:57:24.449Z,8.58
2023-05-02T18:59:51.246Z,8.53
2023-05-02T19:02:17.762Z,8.50
2023-05-02T19:04:44.401Z,8.46
2023-05-02T19:07:13.256Z,8.41
2023-05-02T19:09:44.649Z,8.40
2023-05-02T19:12:13.483Z,8.36
2023-05-02T19:14:40.236Z,8.30
2023-05-02T19:17:06.849Z,8.25
2023-05-02T19:19:33.356Z,8.20
2023-05-02T19:22:02.194Z,8.18
2023-05-02T19:24:28.700Z,8.16
2023-05-02T19:26:57.795Z,8.12
2023-05-02T19:29:24.269Z,8.13
2023-05-02T19:31:50.810Z,8.08
2023-05-02T19:34:19.895Z,8.04
2023-05-02T19:36:46.569Z,8.02
2023-05-02T19:39:13.193Z,7.99
2023-05-02T19:41:42.402Z,7.97
2023-05-02T19:44:08.892Z,7.94
2023-05-02T19:46:37.807Z,7.91
2023-05-02T19:49:04.278Z,7.85
2023-05-02T19:51:34.290Z,7.85
2023-05-02T19:54:03.052Z,7.79
2023-05-02T19:56:31.936Z,7.74
2023-05-02T19:58:58.794Z,7.68
2023-05-02T20:01:29.519Z,7.64
2023-05-02T20:03:58.349Z,7.61
2023-05-02T20:06:25.584Z,7.56
2023-05-02T20:08:52.977Z,7.54
2023-05-02T20:11:19.703Z,7.51
2023-05-02T20:13:46.266Z,7.50
2023-05-02T20:16:16.014Z,7.45
2023-05-02T20:18:42.574Z,7.41
2023-05-02T20:21:09.146Z,7.34
2023-05-02T20:23:35.620Z,7.29
2023-05-02T20:26:02.127Z,7.26
2023-05-02T20:28:28.616Z,7.23
2023-05-02T20:30:59.905Z,7.19
2023-05-02T20:33:33.662Z,7.17
2023-05-02T20:36:08.396Z,7.13
2023-05-02T20:38:34.857Z,7.09
2023-05-02T20:41:07.724Z,7.06
2023-05-02T20:43:36.567Z,7.03
2023-05-02T20:46:13.156Z,6.98
2023-05-02T20:48:39.647Z,7.01
2023-05-02T20:51:06.680Z,6.93
2023-05-02T20:53:33.222Z,6.90
2023-05-02T20:55:59.737Z,6.81
2023-05-02T20:58:26.401Z,6.77
2023-05-02T21:00:54.048Z,6.78
2023-05-02T21:03:24.389Z,6.73
2023-05-02T21:05:55.572Z,6.71
2023-05-02T21:08:22.150Z,6.72
2023-05-02T21:10:48.756Z,6.68
2023-05-02T21:13:17.645Z,6.65
2023-05-02T21:15:46.508Z,6.62
2023-05-02T21:18:15.532Z,6.55
2023-05-02T21:20:42.066Z,6.52
2023-05-02T21:23:11.267Z,6.52
2023-05-02T21:25:38.436Z,6.48
2023-05-02T21:28:05.944Z,6.45
2023-05-02T21:30:32.810Z,6.37
2023-05-02T21:32:59.355Z,6.29
2023-05-02T21:35:25.869Z,6.25
2023-05-02T21:37:52.361Z,6.28
2023-05-02T21:40:18.963Z,6.26
2023-05-02T21:42:45.453Z,6.23
2023-05-02T21:45:12.085Z,6.19
2023-05-02T21:47:38.942Z,6.20
2023-05-02T21:50:10.580Z,6.18
2023-05-02T21:52:39.624Z,6.12
2023-05-02T21:55:06.625Z,6.08
2023-05-02T21:57:33.126Z,6.04
2023-05-02T21:59:59.568Z,6.00
2023-05-02T22:02:28.690Z,5.92
2023-05-02T22:04:58.148Z,5.88
2023-05-02T22:07:24.963Z,5.83
2023-05-02T22:09:51.441Z,5.79
2023-05-02T22:12:23.687Z,5.80
2023-05-02T22:14:50.229Z,5.77
2023-05-02T22:17:18.530Z,5.72
2023-05-02T22:19:50.410Z,5.72
2023-05-02T22:22:19.797Z,5.65
2023-05-02T22:24:46.231Z,5.59
2023-05-02T22:27:12.709Z,5.61
2023-05-02T22:29:41.685Z,5.65
2023-05-02T22:32:13.319Z,5.64
2023-05-02T22:34:39.923Z,5.61
2023-05-02T22:37:06.449Z,5.59
2023-05-02T22:39:32.896Z,5.52
2023-05-02T22:42:04.118Z,5.49
2023-05-02T22:44:32.191Z,5.47
2023-05-02T22:47:05.086Z,5.40
2023-05-02T22:49:33.105Z,5.39
2023-05-02T22:52:02.639Z,5.41
2023-05-02T22:54:31.376Z,5.40
2023-05-02T22:56:57.817Z,5.40
2023-05-02T22:59:27.453Z,5.40
2023-05-02T23:01:53.918Z,5.34
2023-05-02T23:04:21.354Z,5.27
2023-05-02T23:06:50.275Z,5.23
2023-05-02T23:09:19.145Z,5.26
2023-05-02T23:11:48.079Z,5.31
2023-05-02T23:14:15.246Z,5.29
2023-05-02T23:16:41.783Z,5.29
2023-05-02T23:19:08.295Z,5.28
2023-05-02T23:21:36.836Z,5.24
2023-05-02T23:24:08.120Z,5.21
2023-05-02T23:26:34.668Z,5.12
2023-05-02T23:29:01.221Z,5.11
2023-05-02T23:31:32.398Z,5.06
2023-05-02T23:34:01.194Z,5.06
2023-05-02T23:36:27.790Z,5.04
2023-05-02T23:38:54.445Z,5.03
2023-05-02T23:41:22.196Z,4.94
2023-05-02T23:43:48.850Z,4.93
2023-05-02T23:46:15.372Z,4.93
2023-05-02T23:48:41.890Z,4.94
2023-05-02T23:51:10.811Z,4.95
2023-05-02T23:53:40.375Z,4.96
2023-05-02T23:56:07.188Z,4.90
2023-05-02T23:58:33.663Z,4.90
